Portada
METAR-TAF:

METAR-TAF

Aeroports :

Tongatapu, Tonga

latitud: 21-14S, longitud: 175-09W, altitud: 38 m

Observació

L'informe es va fer fa 40 minuts, a les 19:00 UTC
Vent 2 kt amb direcció variable
Temperatura 26°C
Humitat 89%
Pressió 1010 hPa
Visibilitat 10 km o més
Escasses núvols a una alçada de 1600 ft

METAR: NFTF 261900Z VRB02KT 9999 FEW016 26/24 Q1010

Hora: 08:40 (19:40 UTC)

Pronòstic

L'informe es va fer fa 2 hores i 34 minuts, a les 17:06 UTC
Pronòstic vàlid del 26 a les 18 UTC al 27 a les 18 UTC
Vent 9 kt del Est
Visibilitat 10 km o més
Escasses núvols a una alçada de 1600 ft

TAF: NFTF 261706Z 2618/2718 10009KT 9999 FEW016

Observacions i pronòstics meteorològics de més de 4000 aeroports (METAR i TAF).

Les estacions disponibles són els punts grocs i vermells al mapa.

Posi el ratolí al punt desitjat per veure el nom de l'estació.

Feu clic per veure les observacions i els pronòstics meteorològics.

Per canviar el mapa: feu clic els botons verds amb una creu de color negre per apropar; al botó verd amb un guió per allunyar la imatge; o en les fletxes verdes per a mapes adjacents.


METAR-TAF: